Monday, June 27, 2016, 4:19 PM EDT
Back to Local

KPTW, Pottstown Limerick Airport

Location: Royersford, PA, United States Lat: 40.233
Local Time: 4:19 PM EDT (20:19 GMT) Lon: -75.55
Time Zone: US/Eastern Elev: 291 ft

Show me the last for .
Show Decoded

2016-06-27 15:54 METAR KPTW 271954Z AUTO 23009KT 10SM FEW042 SCT075 28/18 A3000 RMK AO2 SLP154
                 T02780183 =
2016-06-27 14:54 METAR KPTW 271854Z AUTO 20009G18KT 10SM CLR 29/17 A3001 RMK AO2 SLP158 T02890172
                 =
2016-06-27 13:54 METAR KPTW 271754Z AUTO 20010KT 160V230 10SM CLR 28/16 A3004 RMK AO2 SLP166
                 T02830161 10283 20183 58017 =
2016-06-27 12:54 METAR KPTW 271654Z AUTO 18007KT 140V210 10SM CLR 27/16 A3006 RMK AO2 SLP174
                 T02720161 =
2016-06-27 11:54 METAR KPTW 271554Z AUTO 20009KT 10SM CLR 27/16 A3008 RMK AO2 SLP181 T02670161 =
2016-06-27 10:54 METAR KPTW 271454Z AUTO 19007KT 170V240 10SM CLR 25/15 A3009 RMK AO2 SLP183
                 T02500150 58011 =
2016-06-27 09:54 METAR KPTW 271354Z AUTO 21008KT 10SM CLR 23/16 A3011 RMK AO2 SLP192 T02280161 =
2016-06-27 08:54 METAR KPTW 271254Z AUTO VRB04KT 9SM CLR 21/17 A3012 RMK AO2 SLP195 T02060167 =
2016-06-27 08:07 METAR KPTW 271207Z AUTO 22004KT 8SM SCT009 19/16 A3012 RMK AO2 T01890161 =
2016-06-27 07:54 METAR KPTW 271154Z AUTO 00000KT 8SM BKN009 18/16 A3012 RMK AO2 SLP194 T01830156
                 10183 20139 55005 =
2016-06-27 07:47 METAR KPTW 271147Z AUTO 00000KT 9SM OVC009 18/16 A3012 RMK AO2 T01830156 =
2016-06-27 07:34 METAR KPTW 271134Z AUTO 00000KT 9SM BKN010 18/15 A3012 RMK AO2 T01780150 =
2016-06-27 07:26 METAR KPTW 271126Z AUTO 00000KT 9SM SCT009 17/14 A3012 RMK AO2 T01720144 =
2016-06-27 06:54 METAR KPTW 271054Z AUTO 00000KT 9SM CLR 17/14 A3012 RMK AO2 SLP193 T01670144 =
2016-06-27 06:35 METAR KPTW 271035Z AUTO 00000KT 9SM FEW009 17/14 A3012 RMK AO2 T01670144 =
2016-06-27 05:54 METAR KPTW 270954Z AUTO 00000KT 9SM CLR 15/13 A3013 RMK AO2 SLP198 T01500133 =
2016-06-27 04:54 METAR KPTW 270854Z AUTO 00000KT 10SM CLR 14/13 A3013 RMK AO2 SLP199 T01390128
                 55006 =
2016-06-27 03:54 METAR KPTW 270754Z AUTO 00000KT 10SM CLR 14/12 A3013 RMK AO2 SLP198 T01440122 =
2016-06-27 02:54 METAR KPTW 270654Z AUTO 00000KT 10SM CLR 15/12 A3014 RMK AO2 SLP201 T01500117 =
2016-06-27 01:54 METAR KPTW 270554Z AUTO 00000KT 10SM CLR 16/11 A3015 RMK AO2 SLP205 T01560111
                 10261 20156 58004 =
2016-06-27 00:54 METAR KPTW 270454Z AUTO 00000KT 10SM CLR 18/10 A3017 RMK AO2 SLP211 T01780100
                 402940144 =
2016-06-26 23:54 METAR KPTW 270354Z AUTO 20004KT 10SM CLR 20/07 A3016 RMK AO2 SLP209 T02000072 =
2016-06-26 22:54 METAR KPTW 270254Z AUTO 19004KT 10SM CLR 21/08 A3016 RMK AO2 SLP210 T02110083
                 53007 =
2016-06-26 21:54 METAR KPTW 270154Z AUTO 18003KT 10SM CLR 22/10 A3015 RMK AO2 SLP205 T02220100 =
2016-06-26 20:54 METAR KPTW 270054Z AUTO 00000KT 10SM CLR 24/13 A3014 RMK AO2 SLP201 T02390128 =
2016-06-26 19:54 METAR KPTW 262354Z AUTO VRB05KT 10SM CLR 26/13 A3014 RMK AO2 SLP203 T02610128
                 10294 20261 56011 =
2016-06-26 18:54 METAR KPTW 262254Z AUTO 20006KT 10SM CLR 28/14 A3015 RMK AO2 SLP205 T02780139 =
2016-06-26 17:54 METAR KPTW 262154Z AUTO 21009KT 10SM CLR 28/14 A3016 RMK AO2 SLP209 T02830139 =
2016-06-26 16:54 METAR KPTW 262054Z AUTO 20008KT 10SM FEW060 29/13 A3018 RMK AO2 SLP213 T02890133
                 56017 =

Support USWX by starting your Amazon purchase here.